createdAt,value
2017-08-09T00:00:37.344Z,17.90
2017-08-09T00:03:06.715Z,17.90
2017-08-09T00:05:35.822Z,17.60
2017-08-09T00:08:05.082Z,17.40
2017-08-09T00:10:34.324Z,17.00
2017-08-09T00:13:03.932Z,16.70
2017-08-09T00:15:33.275Z,17.10
2017-08-09T00:18:02.635Z,17.90
2017-08-09T00:20:33.092Z,18.20
2017-08-09T00:23:02.558Z,18.20
2017-08-09T00:25:31.738Z,18.60
2017-08-09T00:28:01.982Z,18.60
2017-08-09T00:30:31.909Z,19.70
2017-08-09T00:33:02.717Z,19.10
2017-08-09T00:35:31.867Z,19.50
2017-08-09T00:38:00.967Z,19.70
2017-08-09T00:40:30.462Z,19.80
2017-08-09T00:43:00.506Z,19.80
2017-08-09T00:45:29.688Z,20.10
2017-08-09T00:47:59.335Z,19.60
2017-08-09T00:50:28.904Z,19.80
2017-08-09T00:52:58.115Z,20.00
2017-08-09T00:55:27.401Z,20.40
2017-08-09T00:57:56.554Z,20.20
2017-08-09T01:00:25.627Z,20.00
2017-08-09T01:02:55.108Z,20.50
2017-08-09T01:05:24.635Z,20.10
2017-08-09T01:07:53.970Z,20.60
2017-08-09T01:10:23.387Z,20.70
2017-08-09T01:12:52.669Z,21.60
2017-08-09T01:15:22.842Z,21.20
2017-08-09T01:17:52.012Z,20.50
2017-08-09T01:20:22.842Z,21.60
2017-08-09T01:22:52.280Z,21.60
2017-08-09T01:25:21.704Z,21.50
2017-08-09T01:27:51.048Z,21.40
2017-08-09T01:30:21.305Z,21.80
2017-08-09T01:32:50.781Z,21.70
2017-08-09T01:35:21.253Z,21.60
2017-08-09T01:37:51.545Z,22.00
2017-08-09T01:40:22.149Z,21.80
2017-08-09T01:42:52.542Z,21.80
2017-08-09T01:45:21.699Z,21.80
2017-08-09T01:47:50.914Z,21.80
2017-08-09T01:50:20.102Z,22.10
2017-08-09T01:52:49.686Z,22.20
2017-08-09T01:55:19.399Z,22.30
2017-08-09T01:57:48.955Z,22.20
2017-08-09T02:00:18.297Z,22.80
2017-08-09T02:02:47.609Z,22.70
2017-08-09T02:05:16.775Z,22.80
2017-08-09T02:07:46.148Z,23.10
2017-08-09T02:10:15.511Z,23.50
2017-08-09T02:12:44.879Z,23.60
2017-08-09T02:15:14.219Z,23.80
2017-08-09T02:17:44.244Z,24.50
2017-08-09T02:20:14.869Z,24.80
2017-08-09T02:22:44.016Z,24.70
2017-08-09T02:25:13.404Z,24.80
2017-08-09T02:27:42.962Z,24.80
2017-08-09T02:30:12.487Z,25.00
2017-08-09T02:32:41.803Z,25.40
2017-08-09T02:35:11.025Z,26.30
2017-08-09T02:37:42.540Z,25.70
2017-08-09T02:40:13.820Z,26.00
2017-08-09T02:42:43.631Z,26.20
2017-08-09T02:45:13.727Z,26.80
2017-08-09T02:47:43.231Z,26.60
2017-08-09T02:50:12.748Z,26.70
2017-08-09T02:52:42.004Z,27.00
2017-08-09T02:55:12.079Z,27.60
2017-08-09T02:57:41.285Z,27.60
2017-08-09T03:00:10.705Z,27.40
2017-08-09T03:02:39.978Z,27.40
2017-08-09T03:05:09.515Z,27.70
2017-08-09T03:07:39.911Z,27.80
2017-08-09T03:10:09.369Z,27.60
2017-08-09T03:12:38.885Z,27.90
2017-08-09T03:15:08.231Z,27.90
2017-08-09T03:17:37.673Z,28.10
2017-08-09T03:20:06.819Z,28.20
2017-08-09T03:22:35.886Z,28.50
2017-08-09T03:25:05.122Z,28.90
2017-08-09T03:27:34.600Z,29.00
2017-08-09T03:30:03.907Z,29.20
2017-08-09T03:32:33.294Z,29.50
2017-08-09T03:35:02.626Z,29.70
2017-08-09T03:37:32.705Z,30.20
2017-08-09T03:40:03.006Z,30.00
2017-08-09T03:42:32.188Z,30.30
2017-08-09T03:45:01.481Z,30.20
2017-08-09T03:47:31.035Z,30.70
2017-08-09T03:50:00.522Z,31.30
2017-08-09T03:52:30.775Z,31.50
2017-08-09T03:55:00.102Z,31.60
2017-08-09T03:57:29.516Z,31.80
2017-08-09T03:59:59.025Z,31.80
2017-08-09T04:02:28.335Z,31.90
2017-08-09T04:04:57.525Z,32.40
2017-08-09T04:07:26.943Z,32.40
2017-08-09T04:09:56.288Z,32.90
2017-08-09T04:12:25.536Z,33.30
2017-08-09T04:14:54.490Z,33.60
2017-08-09T04:17:23.808Z,33.80
2017-08-09T04:19:52.986Z,34.60
2017-08-09T04:25:16.149Z,35.10
2017-08-09T04:27:45.280Z,35.50
2017-08-09T04:30:14.566Z,36.00
2017-08-09T04:32:44.249Z,36.00
2017-08-09T04:35:13.621Z,36.40
2017-08-09T04:37:44.492Z,37.30
2017-08-09T04:40:13.650Z,37.20
2017-08-09T04:42:43.129Z,37.40
2017-08-09T04:45:12.171Z,37.90
2017-08-09T04:47:41.843Z,37.80
2017-08-09T04:50:11.173Z,38.10
2017-08-09T04:52:40.687Z,38.40
2017-08-09T04:55:09.860Z,39.00
2017-08-09T04:57:39.029Z,39.20
2017-08-09T05:00:08.273Z,39.40
2017-08-09T05:02:37.709Z,39.60
2017-08-09T05:05:07.180Z,39.90
2017-08-09T05:07:36.794Z,40.30
2017-08-09T05:10:05.974Z,40.50
2017-08-09T05:12:36.164Z,41.30
2017-08-09T05:15:05.421Z,41.20
2017-08-09T05:17:34.861Z,41.50
2017-08-09T05:20:04.231Z,42.00
2017-08-09T05:22:33.618Z,42.10
2017-08-09T05:25:03.067Z,42.30
2017-08-09T05:27:33.184Z,42.70
2017-08-09T05:30:02.487Z,43.10
2017-08-09T05:32:31.827Z,43.40
2017-08-09T05:35:01.248Z,43.80
2017-08-09T05:37:30.819Z,43.70
2017-08-09T05:40:00.164Z,43.80
2017-08-09T05:42:29.497Z,44.40
2017-08-09T05:44:58.697Z,44.90
2017-08-09T05:47:27.766Z,44.70
2017-08-09T05:49:56.927Z,44.60
2017-08-09T05:52:26.863Z,45.40
2017-08-09T05:54:56.036Z,45.40
2017-08-09T05:57:25.212Z,45.80
2017-08-09T05:59:54.436Z,46.20
2017-08-09T06:02:24.384Z,46.40
2017-08-09T06:04:54.161Z,46.90
2017-08-09T06:07:23.659Z,46.60
2017-08-09T06:09:52.887Z,47.50
2017-08-09T06:12:22.927Z,48.00
2017-08-09T06:14:52.067Z,48.00
2017-08-09T06:17:22.043Z,48.20
2017-08-09T06:19:51.440Z,48.00
2017-08-09T06:22:20.810Z,48.90
2017-08-09T06:24:50.072Z,49.00
2017-08-09T06:27:19.285Z,49.50
2017-08-09T06:29:49.693Z,50.60
2017-08-09T06:32:18.973Z,50.80
2017-08-09T06:34:48.197Z,50.90
2017-08-09T06:37:17.417Z,50.70
2017-08-09T06:39:46.767Z,51.00
2017-08-09T06:42:15.902Z,51.60
2017-08-09T06:44:45.317Z,51.80
2017-08-09T06:47:14.575Z,51.90
2017-08-09T07:06:45.964Z,55.20
2017-08-09T07:09:15.049Z,55.80
2017-08-09T07:11:44.249Z,55.30
2017-08-09T07:14:13.512Z,55.30
2017-08-09T07:16:42.702Z,56.60
2017-08-09T07:19:12.119Z,56.30
2017-08-09T07:21:41.442Z,56.90
2017-08-09T07:24:10.480Z,56.90
2017-08-09T07:26:39.711Z,58.10
2017-08-09T07:29:09.066Z,57.80
2017-08-09T07:31:39.338Z,59.10
2017-08-09T07:34:08.582Z,58.40
2017-08-09T07:36:37.755Z,58.40
2017-08-09T07:39:07.017Z,59.50
2017-08-09T07:41:36.167Z,59.00
2017-08-09T07:44:05.490Z,59.60
2017-08-09T07:46:34.979Z,60.20
2017-08-09T07:49:04.145Z,61.10
2017-08-09T07:51:33.644Z,61.70
2017-08-09T07:54:02.974Z,61.50
2017-08-09T07:56:32.211Z,61.20
2017-08-09T07:59:02.179Z,62.90
2017-08-09T08:01:31.808Z,62.20
2017-08-09T08:04:01.056Z,62.10
2017-08-09T08:06:30.368Z,61.60
2017-08-09T08:08:59.583Z,62.50
2017-08-09T08:11:29.090Z,62.80
2017-08-09T08:13:59.295Z,62.80
2017-08-09T08:16:29.969Z,62.60
2017-08-09T08:18:59.055Z,62.60
2017-08-09T08:21:28.227Z,63.50
2017-08-09T08:23:57.757Z,63.40
2017-08-09T08:26:28.936Z,63.60
2017-08-09T08:28:58.721Z,63.50
2017-08-09T08:31:27.903Z,63.50
2017-08-09T08:33:58.683Z,63.80
2017-08-09T08:36:28.064Z,63.90
2017-08-09T08:38:57.354Z,64.00
2017-08-09T08:41:26.620Z,64.40
2017-08-09T08:43:55.911Z,65.00
2017-08-09T08:46:25.122Z,65.20
2017-08-09T08:48:54.264Z,64.90
2017-08-09T08:51:23.668Z,65.20
2017-08-09T08:53:52.729Z,64.80
2017-08-09T08:56:22.281Z,64.90
2017-08-09T08:58:51.480Z,64.60
2017-08-09T09:01:20.760Z,65.20
2017-08-09T09:03:50.318Z,65.70
2017-08-09T09:06:19.553Z,65.80
2017-08-09T09:08:48.818Z,65.70
2017-08-09T09:11:18.032Z,65.50
2017-08-09T09:13:47.340Z,67.30
2017-08-09T09:16:16.398Z,67.70
2017-08-09T09:18:46.066Z,67.10
2017-08-09T09:21:15.463Z,66.60
2017-08-09T09:23:44.741Z,67.00
2017-08-09T09:26:13.965Z,67.50
2017-08-09T09:28:43.332Z,67.50
2017-08-09T09:31:12.536Z,67.50
2017-08-09T09:33:41.653Z,67.80
2017-08-09T09:36:11.273Z,68.60
2017-08-09T09:38:40.437Z,68.40
2017-08-09T09:41:09.623Z,68.40
2017-08-09T09:43:38.927Z,69.60
2017-08-09T09:46:08.134Z,68.70
2017-08-09T09:48:37.371Z,68.60
2017-08-09T09:51:06.625Z,69.10
2017-08-09T09:53:36.153Z,69.40
2017-08-09T09:56:05.237Z,69.30
2017-08-09T09:58:34.567Z,70.10
2017-08-09T10:01:03.682Z,71.10
2017-08-09T10:03:32.936Z,71.00
2017-08-09T10:06:02.429Z,70.90
2017-08-09T10:08:31.680Z,70.90
2017-08-09T10:11:00.730Z,70.70
2017-08-09T10:13:29.923Z,71.50
2017-08-09T10:15:59.001Z,71.80
2017-08-09T10:18:28.320Z,71.50
2017-08-09T10:20:57.784Z,72.30
2017-08-09T10:23:28.028Z,71.70
2017-08-09T10:25:57.197Z,71.90
2017-08-09T10:28:26.389Z,72.90
2017-08-09T10:30:55.655Z,72.60
2017-08-09T10:33:24.852Z,72.70
2017-08-09T10:35:54.070Z,72.60
2017-08-09T10:38:24.561Z,72.70
2017-08-09T10:40:53.726Z,73.00
2017-08-09T10:43:22.938Z,72.80
2017-08-09T10:45:52.157Z,73.00
2017-08-09T10:48:21.416Z,72.80
2017-08-09T10:50:51.780Z,73.10
2017-08-09T10:53:20.782Z,74.00
2017-08-09T10:55:51.065Z,74.60
2017-08-09T10:58:20.445Z,75.20
2017-08-09T11:00:49.949Z,75.30
2017-08-09T11:03:19.830Z,75.50
2017-08-09T11:05:50.049Z,75.40
2017-08-09T11:08:19.726Z,75.70
2017-08-09T11:10:49.038Z,75.70
2017-08-09T11:13:18.961Z,78.30
2017-08-09T11:15:49.058Z,81.00
2017-08-09T11:18:18.286Z,80.90
2017-08-09T11:20:47.776Z,80.00
2017-08-09T11:23:17.797Z,78.90
2017-08-09T11:25:47.672Z,78.90
2017-08-09T11:28:16.840Z,78.70
2017-08-09T11:30:46.328Z,78.80
2017-08-09T11:33:15.598Z,78.60
2017-08-09T11:35:45.108Z,79.50
2017-08-09T11:38:15.221Z,79.50
2017-08-09T11:40:44.965Z,79.50
2017-08-09T11:43:14.088Z,80.30
2017-08-09T11:45:43.555Z,80.10
2017-08-09T11:48:12.715Z,80.90
2017-08-09T11:50:41.819Z,80.20
2017-08-09T11:53:12.014Z,80.90
2017-08-09T11:55:41.186Z,80.90
2017-08-09T11:58:10.246Z,81.50
2017-08-09T12:00:39.396Z,81.70
2017-08-09T12:03:08.547Z,81.80
2017-08-09T12:05:37.426Z,80.80
2017-08-09T12:08:06.688Z,81.10
2017-08-09T12:10:35.764Z,80.20
2017-08-09T12:13:05.199Z,80.80
2017-08-09T12:15:34.481Z,82.00
2017-08-09T12:18:03.841Z,80.80
2017-08-09T12:20:34.070Z,81.10
2017-08-09T12:23:03.284Z,81.10
2017-08-09T12:25:32.456Z,81.10
2017-08-09T12:28:01.778Z,80.80
2017-08-09T12:30:31.300Z,80.50
2017-08-09T12:33:00.355Z,80.70
2017-08-09T12:35:29.402Z,81.00
2017-08-09T12:37:58.870Z,81.40
2017-08-09T12:40:27.937Z,81.80
2017-08-09T12:42:57.317Z,81.20
2017-08-09T12:45:26.858Z,80.60
2017-08-09T12:47:56.141Z,80.60
2017-08-09T12:50:25.207Z,80.50
2017-08-09T12:52:54.480Z,80.60
2017-08-09T12:55:23.776Z,81.00
2017-08-09T12:57:52.869Z,80.40
2017-08-09T13:00:22.270Z,80.20
2017-08-09T13:02:51.461Z,80.00
2017-08-09T13:05:20.465Z,80.00
2017-08-09T13:07:49.779Z,79.50
2017-08-09T13:10:19.167Z,79.90
2017-08-09T13:12:48.311Z,80.20
2017-08-09T13:15:17.576Z,80.40
2017-08-09T13:17:47.124Z,80.40
2017-08-09T13:20:16.164Z,80.70
2017-08-09T13:22:45.516Z,80.40
2017-08-09T13:25:14.790Z,81.40
2017-08-09T13:27:44.283Z,80.90
2017-08-09T13:30:13.646Z,81.20
2017-08-09T13:32:43.187Z,81.50
2017-08-09T13:35:12.409Z,82.20
2017-08-09T13:37:41.843Z,81.50
2017-08-09T13:40:11.030Z,81.40
2017-08-09T13:42:40.430Z,81.20
2017-08-09T13:45:10.640Z,81.20
2017-08-09T13:47:39.854Z,81.10
2017-08-09T13:50:09.034Z,80.40
2017-08-09T13:52:38.053Z,80.50
2017-08-09T13:55:07.335Z,80.90
2017-08-09T13:57:36.624Z,80.60
2017-08-09T14:00:05.895Z,80.60
2017-08-09T14:02:35.368Z,80.40
2017-08-09T14:05:04.417Z,79.60
2017-08-09T14:07:33.690Z,79.00
2017-08-09T14:10:02.946Z,79.00
2017-08-09T14:12:32.225Z,79.10
2017-08-09T14:15:01.576Z,78.70
2017-08-09T14:17:31.517Z,78.50
2017-08-09T14:20:00.759Z,78.50
2017-08-09T14:22:30.170Z,77.50
2017-08-09T14:24:59.353Z,76.80
2017-08-09T14:27:28.725Z,75.40
2017-08-09T14:29:57.819Z,74.60
2017-08-09T14:32:27.137Z,73.60
2017-08-09T14:34:56.413Z,72.10
2017-08-09T14:37:25.789Z,72.20
2017-08-09T14:39:55.306Z,70.70
2017-08-09T14:42:24.616Z,70.40
2017-08-09T14:44:54.859Z,69.30
2017-08-09T14:47:27.597Z,69.30
2017-08-09T14:49:57.051Z,69.10
2017-08-09T14:52:26.238Z,67.80
2017-08-09T14:54:55.482Z,66.90
2017-08-09T14:57:25.009Z,67.20
2017-08-09T14:59:54.328Z,67.80
2017-08-09T15:02:23.493Z,68.80
2017-08-09T15:04:52.781Z,68.30
2017-08-09T15:07:22.070Z,65.60
2017-08-09T15:09:51.318Z,65.60
2017-08-09T15:12:20.547Z,63.30
2017-08-09T15:14:49.878Z,62.80
2017-08-09T15:17:19.001Z,62.90
2017-08-09T15:19:49.144Z,60.60
2017-08-09T15:22:18.353Z,60.80
2017-08-09T15:24:47.899Z,58.10
2017-08-09T15:27:16.961Z,54.80
2017-08-09T15:29:46.310Z,51.10
2017-08-09T15:32:15.781Z,45.80
2017-08-09T15:34:45.042Z,41.80
2017-08-09T15:37:14.153Z,38.50
2017-08-09T15:39:43.347Z,37.90
2017-08-09T15:42:12.741Z,34.40
2017-08-09T15:44:42.080Z,32.00
2017-08-09T15:47:11.430Z,29.60
2017-08-09T15:49:41.952Z,27.60
2017-08-09T15:52:11.418Z,27.40
2017-08-09T15:54:41.269Z,25.40
2017-08-09T15:57:10.672Z,24.10
2017-08-09T15:59:40.029Z,24.40
2017-08-09T16:02:09.812Z,23.80
2017-08-09T16:04:39.076Z,24.00
2017-08-09T16:07:08.249Z,23.00
2017-08-09T16:09:37.898Z,21.20
2017-08-09T16:12:07.376Z,20.20
2017-08-09T16:14:36.622Z,20.30
2017-08-09T16:17:12.874Z,19.30
2017-08-09T16:19:42.291Z,19.40
2017-08-09T16:22:11.542Z,18.90
2017-08-09T16:24:40.942Z,19.70
2017-08-09T16:27:09.975Z,19.20
2017-08-09T16:29:39.510Z,17.60
2017-08-09T16:32:09.174Z,16.80
2017-08-09T16:34:38.205Z,14.90
2017-08-09T16:37:07.485Z,14.60
2017-08-09T16:39:36.825Z,15.00
2017-08-09T16:42:06.448Z,14.40
2017-08-09T16:44:39.777Z,15.10
2017-08-09T16:47:09.022Z,15.00
2017-08-09T16:49:38.326Z,14.30
2017-08-09T16:52:08.621Z,13.80
2017-08-09T16:54:37.980Z,13.70
2017-08-09T16:57:07.249Z,12.70
2017-08-09T16:59:36.741Z,14.60
2017-08-09T17:02:06.143Z,13.90
2017-08-09T17:04:35.347Z,14.40
2017-08-09T17:07:04.513Z,14.70
2017-08-09T17:09:34.477Z,17.40
2017-08-09T17:12:04.049Z,17.30
2017-08-09T17:14:33.384Z,17.60
2017-08-09T17:17:02.797Z,17.30
2017-08-09T17:19:31.734Z,16.20
2017-08-09T17:22:01.203Z,15.30
2017-08-09T17:24:30.428Z,14.60
2017-08-09T17:26:59.841Z,15.10
2017-08-09T17:29:29.987Z,15.20
2017-08-09T17:31:59.538Z,15.20
2017-08-09T17:34:28.914Z,14.00
2017-08-09T17:36:59.256Z,13.40
2017-08-09T17:39:28.349Z,13.40
2017-08-09T17:41:57.830Z,12.40
2017-08-09T17:44:28.151Z,12.20
2017-08-09T17:46:57.424Z,11.70
2017-08-09T17:49:26.620Z,12.40
2017-08-09T17:51:56.151Z,12.40
2017-08-09T17:54:26.061Z,13.50
2017-08-09T17:56:55.506Z,13.90
2017-08-09T17:59:24.868Z,13.90
2017-08-09T18:01:54.237Z,15.00
2017-08-09T18:04:23.750Z,17.30
2017-08-09T18:06:52.892Z,17.60
2017-08-09T18:09:22.071Z,17.00
2017-08-09T18:11:51.519Z,16.10
2017-08-09T18:14:20.973Z,15.50
2017-08-09T18:16:50.824Z,14.40
2017-08-09T18:19:20.077Z,14.60
2017-08-09T18:21:50.240Z,16.80
2017-08-09T18:24:19.648Z,16.80
2017-08-09T18:26:49.182Z,17.60
2017-08-09T18:29:18.553Z,17.00
2017-08-09T18:31:47.917Z,17.70
2017-08-09T18:34:17.238Z,17.30
2017-08-09T18:36:46.401Z,16.30
2017-08-09T18:39:16.455Z,15.30
2017-08-09T18:41:46.068Z,15.30
2017-08-09T18:44:15.190Z,14.20
2017-08-09T18:46:44.438Z,15.30
2017-08-09T18:49:13.768Z,15.70
2017-08-09T18:51:43.081Z,16.50
2017-08-09T18:54:12.433Z,15.60
2017-08-09T18:56:43.736Z,14.70
2017-08-09T18:59:13.242Z,14.70
2017-08-09T19:01:42.375Z,14.50
2017-08-09T19:04:11.581Z,12.80
2017-08-09T19:06:40.797Z,13.20
2017-08-09T19:09:10.139Z,12.20
2017-08-09T19:11:39.204Z,11.50
2017-08-09T19:14:08.763Z,11.20
2017-08-09T19:16:38.795Z,10.80
2017-08-09T19:19:08.233Z,11.00
2017-08-09T19:21:37.613Z,10.70
2017-08-09T19:24:06.791Z,11.90
2017-08-09T19:26:35.971Z,11.70
2017-08-09T19:29:05.386Z,10.90
2017-08-09T19:31:34.585Z,11.40
2017-08-09T19:34:03.938Z,12.60
2017-08-09T19:36:33.239Z,13.20
2017-08-09T19:39:02.750Z,13.00
2017-08-09T19:41:32.521Z,11.80
2017-08-09T19:44:02.443Z,11.50
2017-08-09T19:46:31.563Z,11.50
2017-08-09T19:49:07.996Z,11.90
2017-08-09T19:51:37.440Z,13.20
2017-08-09T19:54:06.677Z,14.10
2017-08-09T19:56:36.055Z,13.80
2017-08-09T19:59:06.614Z,13.00
2017-08-09T20:01:35.792Z,13.00
2017-08-09T20:04:05.156Z,13.40
2017-08-09T20:06:34.472Z,14.70
2017-08-09T20:09:04.079Z,15.10
2017-08-09T20:11:33.286Z,16.40
2017-08-09T20:14:02.599Z,17.60
2017-08-09T20:16:31.819Z,18.10
2017-08-09T20:19:00.867Z,19.30
2017-08-09T20:21:30.314Z,19.80
2017-08-09T20:23:59.555Z,20.70
2017-08-09T20:26:28.774Z,20.10
2017-08-09T20:28:57.817Z,22.40
2017-08-09T20:31:27.339Z,22.80
2017-08-09T20:33:56.463Z,22.90
2017-08-09T20:36:25.646Z,22.90
2017-08-09T20:38:54.877Z,22.20
2017-08-09T20:41:24.026Z,22.60
2017-08-09T20:43:54.040Z,22.50
2017-08-09T20:46:23.329Z,22.50
2017-08-09T20:48:52.456Z,22.30
2017-08-09T20:51:21.826Z,22.00
2017-08-09T20:53:51.400Z,21.90
2017-08-09T20:56:20.902Z,22.40
2017-08-09T20:58:50.214Z,22.00
2017-08-09T21:01:20.804Z,22.00
2017-08-09T21:03:50.097Z,22.30
2017-08-09T21:06:19.451Z,22.30
2017-08-09T21:08:48.657Z,22.80
2017-08-09T21:11:17.741Z,23.00
2017-08-09T21:13:47.457Z,22.90
2017-08-09T21:16:16.855Z,22.50
2017-08-09T21:18:45.921Z,23.20
2017-08-09T21:21:15.237Z,23.10
2017-08-09T21:23:44.672Z,23.30
2017-08-09T21:26:13.825Z,23.20
2017-08-09T21:28:43.055Z,22.90
2017-08-09T21:31:12.463Z,22.50
2017-08-09T21:33:41.734Z,22.80
2017-08-09T21:36:11.014Z,22.10
2017-08-09T21:38:40.367Z,22.40
2017-08-09T21:41:09.595Z,21.70
2017-08-09T21:43:38.721Z,21.40
2017-08-09T21:46:08.970Z,21.60
2017-08-09T21:48:38.053Z,20.20
2017-08-09T21:51:07.546Z,20.10
2017-08-09T21:53:36.834Z,20.20
2017-08-09T21:56:06.004Z,20.10
2017-08-09T21:58:35.241Z,19.40
2017-08-09T22:01:04.762Z,19.40
2017-08-09T22:03:35.933Z,18.40
2017-08-09T22:06:05.075Z,18.20
2017-08-09T22:08:34.408Z,18.20
2017-08-09T22:11:03.661Z,18.00
2017-08-09T22:13:33.334Z,18.30
2017-08-09T22:16:02.512Z,18.50
2017-08-09T22:18:31.744Z,18.40
2017-08-09T22:21:00.830Z,18.70
2017-08-09T22:23:30.160Z,19.30
2017-08-09T22:25:59.331Z,18.60
2017-08-09T22:28:28.620Z,18.60
2017-08-09T22:30:57.677Z,18.40
2017-08-09T22:33:27.237Z,17.60
2017-08-09T22:35:56.394Z,17.70
2017-08-09T22:38:29.865Z,18.10
2017-08-09T22:40:59.590Z,17.50
2017-08-09T22:43:28.988Z,17.60
2017-08-09T22:45:58.280Z,16.90
2017-08-09T22:48:28.365Z,16.90
2017-08-09T22:50:57.969Z,16.90
2017-08-09T22:53:27.401Z,16.90
2017-08-09T22:55:57.653Z,17.00
2017-08-09T22:58:27.040Z,17.00
2017-08-09T23:00:56.298Z,17.40
2017-08-09T23:03:25.536Z,17.30
2017-08-09T23:05:56.421Z,17.60
2017-08-09T23:08:25.850Z,17.50
2017-08-09T23:10:55.402Z,17.80
2017-08-09T23:13:24.886Z,17.00
2017-08-09T23:15:55.157Z,17.50
2017-08-09T23:18:24.426Z,17.40
2017-08-09T23:20:54.292Z,17.60
2017-08-09T23:23:24.433Z,17.30
2017-08-09T23:25:54.711Z,17.70
2017-08-09T23:28:24.853Z,17.70
2017-08-09T23:30:54.258Z,16.50
2017-08-09T23:33:23.530Z,17.20
2017-08-09T23:35:54.650Z,17.60
2017-08-09T23:38:24.334Z,17.20
2017-08-09T23:40:54.407Z,16.70
2017-08-09T23:43:23.903Z,16.60
2017-08-09T23:45:53.314Z,16.20
2017-08-09T23:48:22.566Z,15.10
2017-08-09T23:50:51.968Z,14.80
2017-08-09T23:53:21.352Z,14.80
2017-08-09T23:55:51.727Z,15.60
2017-08-09T23:58:21.313Z,16.50
